Time;durP1;ratioP1;P1;durP2;ratioP2;P2;SDS_P1;SDS_P2;PMS_P1;PMS_P2;Temp;Humidity;BMP_temperature;BMP_pressure;BME280_temperature;BME280_humidity;BME280_pressure;Samples;Min_cycle;Max_cycle;Signal;HPM_P1;HPM_P2
2022/12/21 00:01:24;;;;;;;2.88;1.95;;;13.60;99.90;;;;;;5012515;28;20030;-85
2022/12/21 00:03:56;;;;;;;4.10;1.80;;;13.50;99.90;;;;;;5011715;28;20044;-86
2022/12/21 00:06:23;;;;;;;5.13;1.90;;;13.60;99.90;;;;;;5012227;28;20073;-86
2022/12/21 00:08:50;;;;;;;4.13;1.70;;;13.50;99.90;;;;;;5018505;28;20033;-86
2022/12/21 00:11:17;;;;;;;6.53;2.40;;;13.50;99.90;;;;;;5031563;28;20045;-85
2022/12/21 00:13:43;;;;;;;5.68;2.30;;;13.50;99.90;;;;;;5031921;28;20061;-86
2022/12/21 00:16:11;;;;;;;6.10;2.08;;;13.60;99.90;;;;;;5030760;28;20037;-86
2022/12/21 00:18:37;;;;;;;5.03;1.88;;;13.70;99.90;;;;;;5032278;28;20426;-85
2022/12/21 00:21:10;;;;;;;5.28;1.92;;;13.60;99.90;;;;;;5031054;28;20040;-86
2022/12/21 00:23:36;;;;;;;6.25;2.10;;;13.60;99.90;;;;;;5032269;28;20029;-85
2022/12/21 00:26:04;;;;;;;3.90;1.73;;;13.60;99.90;;;;;;5031523;28;20021;-85
2022/12/21 00:28:30;;;;;;;7.47;2.30;;;13.60;99.90;;;;;;5031984;28;20044;-85
2022/12/21 00:31:08;;;;;;;5.30;1.60;;;13.50;99.90;;;;;;5031323;28;20552;-85
2022/12/21 00:33:34;;;;;;;4.07;1.90;;;13.40;99.90;;;;;;5031173;28;20029;-85
2022/12/21 00:36:00;;;;;;;5.18;2.10;;;13.60;99.90;;;;;;5027303;28;20033;-84
2022/12/21 00:38:26;;;;;;;2.83;1.80;;;13.40;99.90;;;;;;5030781;28;20030;-85
2022/12/21 00:41:02;;;;;;;4.50;2.00;;;13.30;99.90;;;;;;5031762;28;20014;-85
2022/12/21 00:43:28;;;;;;;3.88;1.90;;;13.30;99.90;;;;;;5026784;28;20080;-85
2022/12/21 00:45:54;;;;;;;3.72;2.00;;;13.30;99.90;;;;;;5015010;28;20268;-85
2022/12/21 00:48:20;;;;;;;3.80;1.98;;;13.40;99.90;;;;;;5031468;28;20087;-85
2022/12/21 00:50:47;;;;;;;6.28;2.28;;;13.40;99.90;;;;;;5013260;28;20033;-85
2022/12/21 00:53:14;;;;;;;7.30;2.42;;;13.30;99.90;;;;;;5030500;28;20045;-85
2022/12/21 00:55:41;;;;;;;3.78;1.60;;;13.30;99.90;;;;;;5013095;28;20036;-85
2022/12/21 00:58:07;;;;;;;4.93;2.10;;;13.30;99.90;;;;;;5021173;28;20069;-85
2022/12/21 01:00:33;;;;;;;5.35;1.77;;;13.40;99.90;;;;;;5011360;28;20030;-85
2022/12/21 01:02:59;;;;;;;5.72;2.40;;;13.40;99.90;;;;;;5029937;28;20059;-85
2022/12/21 01:05:24;;;;;;;2.30;1.67;;;13.20;99.90;;;;;;5031059;28;20057;-85
2022/12/21 01:07:50;;;;;;;4.70;2.40;;;13.20;99.90;;;;;;5031468;28;20048;-85
2022/12/21 01:10:16;;;;;;;6.22;2.05;;;13.20;99.90;;;;;;5035198;28;20077;-85
2022/12/21 01:12:41;;;;;;;5.03;2.10;;;13.00;99.90;;;;;;5034748;28;20025;-85
2022/12/21 01:15:08;;;;;;;4.72;2.55;;;12.90;99.90;;;;;;5034407;28;20036;-85
2022/12/21 01:17:34;;;;;;;9.25;2.85;;;12.80;99.90;;;;;;5034802;28;20121;-85
2022/12/21 01:20:00;;;;;;;7.63;2.50;;;12.70;99.90;;;;;;5034521;28;20128;-85
2022/12/21 01:22:26;;;;;;;5.03;2.10;;;12.70;99.90;;;;;;5034611;28;20430;-85
2022/12/21 01:24:51;;;;;;;5.50;2.00;;;12.80;99.90;;;;;;5034443;28;20033;-84
2022/12/21 01:27:17;;;;;;;4.95;1.80;;;12.80;99.90;;;;;;5034303;28;20021;-85
2022/12/21 01:29:43;;;;;;;6.75;1.70;;;12.90;99.90;;;;;;5034590;28;20025;-85
2022/12/21 01:32:08;;;;;;;5.72;1.95;;;13.00;99.90;;;;;;5033569;28;20037;-85
2022/12/21 01:34:34;;;;;;;3.05;1.70;;;13.00;99.90;;;;;;5034216;28;20382;-85
2022/12/21 01:36:59;;;;;;;3.13;1.80;;;13.10;99.90;;;;;;5033649;28;20041;-85
2022/12/21 01:39:25;;;;;;;5.47;2.10;;;13.00;99.90;;;;;;5034096;28;20489;-85
2022/12/21 01:41:51;;;;;;;4.05;1.98;;;12.90;99.90;;;;;;5034088;28;20037;-85
2022/12/21 01:44:58;;;;;;;4.25;1.98;;;12.90;99.90;;;;;;5033752;28;20034;-85
2022/12/21 01:47:30;;;;;;;2.53;1.90;;;12.90;99.90;;;;;;5034397;28;20095;-85
2022/12/21 01:50:03;;;;;;;6.93;2.00;;;12.70;99.90;;;;;;5034075;28;20029;-85
2022/12/21 01:52:30;;;;;;;4.85;1.67;;;12.80;99.90;;;;;;5033656;28;20510;-86
2022/12/21 01:55:00;;;;;;;4.05;1.67;;;12.80;99.90;;;;;;5026176;28;20040;-85
2022/12/21 01:57:29;;;;;;;5.45;1.80;;;12.80;99.90;;;;;;5014343;28;20080;-85
2022/12/21 01:59:58;;;;;;;4.85;1.88;;;12.80;99.90;;;;;;5029569;28;20033;-85
2022/12/21 02:02:28;;;;;;;5.35;2.40;;;12.70;99.90;;;;;;5033823;28;20486;-85
2022/12/21 02:05:02;;;;;;;4.60;1.92;;;12.70;99.90;;;;;;5033927;28;20462;-85
2022/12/21 02:07:28;;;;;;;6.28;1.58;;;12.70;99.90;;;;;;5034027;28;20025;-85
2022/12/21 02:09:55;;;;;;;4.38;1.60;;;12.70;99.90;;;;;;5033564;28;20031;-85
2022/12/21 02:12:22;;;;;;;4.78;1.75;;;12.70;99.90;;;;;;5032530;28;20044;-85
2022/12/21 02:14:48;;;;;;;5.53;1.90;;;12.70;99.90;;;;;;5033252;28;20033;-85
2022/12/21 02:17:38;;;;;;;3.78;1.80;;;12.70;99.90;;;;;;5033602;28;20129;-84
2022/12/21 02:20:29;;;;;;;3.97;1.60;;;12.60;99.90;;;;;;5033071;28;20087;-85
2022/12/21 02:23:19;;;;;;;6.28;1.70;;;12.70;99.90;;;;;;5015705;28;20090;-85
2022/12/21 02:25:54;;;;;;;4.72;1.55;;;12.70;99.90;;;;;;5033224;28;20128;-85
2022/12/21 02:28:46;;;;;;;3.70;1.80;;;12.70;99.90;;;;;;5032285;28;20482;-85
2022/12/21 02:31:32;;;;;;;4.15;1.77;;;12.60;99.90;;;;;;5022267;28;20021;-85
2022/12/21 02:34:21;;;;;;;3.80;1.58;;;12.60;99.90;;;;;;5033410;28;20026;-85
2022/12/21 02:37:25;;;;;;;4.28;1.75;;;12.60;99.90;;;;;;5032908;28;20124;-85
2022/12/21 02:39:51;;;;;;;4.85;1.80;;;12.60;99.90;;;;;;5033042;28;20515;-85
2022/12/21 02:45:42;;;;;;;4.60;1.90;;;12.70;99.90;;;;;;4952058;29;20043;-85
2022/12/21 02:48:38;;;;;;;5.22;1.65;;;12.70;99.90;;;;;;4952622;29;20047;-85
2022/12/21 02:51:11;;;;;;;5.07;1.88;;;12.70;99.90;;;;;;4951737;28;20547;-85
2022/12/21 02:53:38;;;;;;;2.72;1.60;;;12.80;99.90;;;;;;4951950;29;20452;-85
2022/12/21 02:56:04;;;;;;;9.13;1.98;;;12.80;99.90;;;;;;4952326;28;20039;-86
2022/12/21 02:58:30;;;;;;;5.00;2.13;;;12.80;99.90;;;;;;4952532;28;20042;-85
2022/12/21 03:01:15;;;;;;;4.10;1.80;;;12.70;99.90;;;;;;4952296;28;20040;-85
2022/12/21 03:04:00;;;;;;;2.67;1.70;;;12.70;99.90;;;;;;4952601;28;20074;-85
2022/12/21 03:06:55;;;;;;;6.93;2.15;;;12.70;99.90;;;;;;4951972;28;20110;-84
2022/12/21 03:09:39;;;;;;;6.13;1.80;;;12.70;99.90;;;;;;4952353;28;20039;-84
2022/12/21 03:12:26;;;;;;;7.03;1.85;;;12.60;99.90;;;;;;4951825;28;20139;-85
2022/12/21 03:15:20;;;;;;;7.32;2.00;;;12.70;99.90;;;;;;4951889;28;20050;-85
2022/12/21 03:17:59;;;;;;;5.28;2.50;;;12.60;99.90;;;;;;4951319;28;20098;-85
2022/12/21 03:20:32;;;;;;;7.15;2.30;;;12.60;99.90;;;;;;4968974;28;20045;-85
2022/12/21 03:23:26;;;;;;;4.38;2.08;;;12.60;99.90;;;;;;5032420;28;20136;-85
2022/12/21 03:26:08;;;;;;;6.85;1.90;;;12.70;99.90;;;;;;5031986;28;20391;-85
2022/12/21 03:28:37;;;;;;;7.25;1.90;;;12.70;99.90;;;;;;5015787;28;20060;-85
2022/12/21 03:31:07;;;;;;;5.80;1.95;;;12.70;99.90;;;;;;5032186;28;20545;-85
2022/12/21 03:33:40;;;;;;;8.38;2.38;;;12.60;99.90;;;;;;5032512;28;20025;-85
2022/12/21 03:36:12;;;;;;;3.10;1.90;;;12.70;99.90;;;;;;5031704;28;20030;-85
2022/12/21 03:38:48;;;;;;;7.57;2.00;;;12.70;99.90;;;;;;5032366;28;20049;-85
2022/12/21 03:41:20;;;;;;;3.42;1.83;;;12.60;99.90;;;;;;5031289;28;20438;-85
2022/12/21 03:43:48;;;;;;;5.50;2.08;;;12.60;99.90;;;;;;5031569;28;20428;-85
2022/12/21 03:46:20;;;;;;;4.07;1.98;;;12.60;99.90;;;;;;5031805;28;20018;-85
2022/12/21 03:49:02;;;;;;;3.95;1.95;;;12.60;99.90;;;;;;5032324;28;20402;-85
2022/12/21 03:51:44;;;;;;;6.72;1.67;;;12.60;99.90;;;;;;5031825;28;20037;-85
2022/12/21 03:54:27;;;;;;;4.95;1.95;;;12.60;99.90;;;;;;5030310;28;20481;-85
2022/12/21 03:56:54;;;;;;;7.72;2.00;;;12.70;99.90;;;;;;5031856;28;20037;-85
2022/12/21 03:59:20;;;;;;;6.00;1.83;;;12.70;99.90;;;;;;5031721;28;20033;-85
2022/12/21 04:01:54;;;;;;;5.03;1.90;;;12.70;99.90;;;;;;5031750;28;20078;-85
2022/12/21 04:04:31;;;;;;;4.40;1.80;;;12.70;99.90;;;;;;5031626;28;20030;-84
2022/12/21 04:07:00;;;;;;;3.97;1.95;;;12.70;99.90;;;;;;5031946;28;20041;-85
2022/12/21 04:09:26;;;;;;;5.22;2.05;;;12.60;99.90;;;;;;5030976;28;20087;-84
2022/12/21 04:14:38;;;;;;;4.50;2.00;;;12.50;99.90;;;;;;5031300;28;20021;-84
2022/12/21 04:17:03;;;;;;;4.47;1.83;;;12.50;99.90;;;;;;5031635;28;20049;-84
2022/12/21 04:28:06;;;;;;;7.55;2.22;;;12.70;99.90;;;;;;5032530;28;20528;-90
2022/12/21 04:30:27;;;;;;;5.93;2.30;;;12.60;99.90;;;;;;5032231;28;20128;-89
2022/12/21 04:32:53;;;;;;;5.20;2.30;;;12.60;99.90;;;;;;5031640;28;20123;-90
2022/12/21 04:35:18;;;;;;;4.70;2.22;;;12.60;99.90;;;;;;5032061;28;20040;-90
2022/12/21 04:37:44;;;;;;;3.53;1.90;;;12.60;99.90;;;;;;5031549;28;20065;-90
2022/12/21 04:40:10;;;;;;;3.47;2.20;;;12.60;99.90;;;;;;5032416;28;20030;-90
2022/12/21 04:42:38;;;;;;;4.57;1.88;;;12.60;99.90;;;;;;5014337;28;20401;-90
2022/12/21 04:45:04;;;;;;;5.13;2.05;;;12.50;99.90;;;;;;5017838;28;20033;-90
2022/12/21 04:47:30;;;;;;;7.05;2.00;;;12.50;99.90;;;;;;5017213;28;20077;-90
2022/12/21 04:49:55;;;;;;;5.75;2.00;;;12.50;99.90;;;;;;5003657;28;20029;-90
2022/12/21 04:52:21;;;;;;;5.50;2.22;;;12.50;99.90;;;;;;5034891;28;20389;-90
2022/12/21 04:54:47;;;;;;;8.48;2.42;;;12.50;99.90;;;;;;5038022;28;20021;-90
2022/12/21 04:57:12;;;;;;;7.50;2.60;;;12.50;99.90;;;;;;5035320;28;20131;-91
2022/12/21 04:59:38;;;;;;;5.45;2.30;;;12.50;99.90;;;;;;5034966;28;20035;-91
2022/12/21 05:02:04;;;;;;;7.63;2.30;;;12.60;99.90;;;;;;5035647;28;20030;-91
2022/12/21 05:04:29;;;;;;;7.55;2.60;;;12.60;99.90;;;;;;5035814;28;20064;-91
2022/12/21 05:06:55;;;;;;;5.43;1.90;;;12.50;99.90;;;;;;5036129;28;20029;-91
2022/12/21 05:09:21;;;;;;;3.70;2.17;;;12.50;99.90;;;;;;5035976;28;20025;-90
2022/12/21 05:11:47;;;;;;;6.82;2.70;;;12.50;99.90;;;;;;5018071;28;20581;-90
2022/12/21 05:14:12;;;;;;;4.40;2.08;;;12.50;99.90;;;;;;5036040;28;20532;-91
2022/12/21 05:16:38;;;;;;;5.05;2.50;;;12.40;99.90;;;;;;5017655;28;20080;-90
2022/12/21 05:19:04;;;;;;;9.18;3.22;;;12.40;99.90;;;;;;5035610;28;20413;-91
2022/12/21 05:21:29;;;;;;;6.80;2.50;;;12.30;99.90;;;;;;5035527;28;20243;-91
2022/12/21 05:23:55;;;;;;;6.53;2.75;;;12.20;99.90;;;;;;5036286;28;20083;-90
2022/12/21 05:26:21;;;;;;;7.93;2.80;;;12.30;99.90;;;;;;5017897;28;20445;-91
2022/12/21 05:28:47;;;;;;;8.30;2.40;;;12.30;99.90;;;;;;5035603;28;20033;-91
2022/12/21 05:31:13;;;;;;;6.28;2.88;;;12.30;99.90;;;;;;5035228;28;20036;-90
2022/12/21 05:33:39;;;;;;;5.43;2.85;;;12.30;99.90;;;;;;5035219;28;20117;-91
2022/12/21 05:36:07;;;;;;;9.25;3.10;;;12.30;99.90;;;;;;5034767;28;20116;-91
2022/12/21 05:38:33;;;;;;;8.45;3.03;;;12.30;99.90;;;;;;5035504;28;20386;-91
2022/12/21 05:40:59;;;;;;;5.38;2.75;;;12.30;99.90;;;;;;5034578;28;20025;-90
2022/12/21 05:43:25;;;;;;;9.88;3.90;;;12.20;99.90;;;;;;5017722;28;20049;-91
2022/12/21 05:45:50;;;;;;;9.48;4.13;;;12.20;99.90;;;;;;5034874;28;20025;-91
2022/12/21 05:48:16;;;;;;;10.30;5.93;;;12.10;99.90;;;;;;5017133;28;20037;-91
2022/12/21 05:50:42;;;;;;;8.15;5.10;;;12.00;99.90;;;;;;5035106;28;20386;-90
2022/12/21 05:53:08;;;;;;;7.15;3.90;;;12.00;99.90;;;;;;5034558;28;20037;-91
2022/12/21 05:55:34;;;;;;;7.78;4.05;;;12.10;99.90;;;;;;5033553;28;20025;-91
2022/12/21 05:58:00;;;;;;;7.43;3.70;;;12.10;99.90;;;;;;5017169;28;20037;-91
2022/12/21 06:00:26;;;;;;;8.05;3.45;;;12.00;99.90;;;;;;5035207;28;20493;-91
2022/12/21 06:02:52;;;;;;;6.50;3.13;;;12.00;99.90;;;;;;5034872;28;20026;-90
2022/12/21 06:05:17;;;;;;;8.63;3.80;;;12.10;99.90;;;;;;5034124;28;20029;-90
2022/12/21 06:07:43;;;;;;;6.10;3.40;;;12.10;99.90;;;;;;5016711;28;20032;-91
2022/12/21 06:10:09;;;;;;;7.55;3.60;;;12.10;99.90;;;;;;5034607;28;20142;-90
2022/12/21 06:12:35;;;;;;;9.55;4.30;;;12.10;99.90;;;;;;5034678;28;20526;-90
2022/12/21 06:15:01;;;;;;;7.00;3.75;;;12.10;99.90;;;;;;5034727;28;20033;-90
2022/12/21 06:17:28;;;;;;;8.65;4.38;;;12.00;99.90;;;;;;5034168;28;20128;-90
2022/12/21 06:19:53;;;;;;;6.20;4.32;;;11.90;99.90;;;;;;5033725;28;20482;-90
2022/12/21 06:22:19;;;;;;;7.10;3.70;;;11.90;99.90;;;;;;5034443;28;20083;-90
2022/12/21 06:24:45;;;;;;;10.25;4.32;;;11.90;99.90;;;;;;5034256;28;20044;-90
2022/12/21 06:27:11;;;;;;;8.55;4.63;;;11.80;99.90;;;;;;5034077;28;20104;-90
2022/12/21 06:29:36;;;;;;;9.00;4.95;;;11.90;99.90;;;;;;5016171;28;20022;-89
2022/12/21 06:32:02;;;;;;;9.10;4.10;;;11.90;99.90;;;;;;5034208;28;20029;-90
2022/12/21 06:34:28;;;;;;;7.63;3.92;;;11.90;99.90;;;;;;5016100;28;20020;-90
2022/12/21 06:36:53;;;;;;;8.27;4.07;;;11.90;99.90;;;;;;5033856;28;20383;-91
2022/12/21 06:39:19;;;;;;;8.35;4.32;;;11.90;99.90;;;;;;5034310;28;20057;-90
2022/12/21 06:41:45;;;;;;;9.00;4.10;;;11.90;99.90;;;;;;5034065;28;20029;-90
2022/12/21 06:44:10;;;;;;;8.73;4.10;;;11.80;99.90;;;;;;5016799;28;20105;-90
2022/12/21 06:46:36;;;;;;;7.03;4.22;;;11.90;99.90;;;;;;5016445;28;20037;-90
2022/12/21 06:49:01;;;;;;;8.35;4.05;;;11.90;99.90;;;;;;5033470;28;20161;-91
2022/12/21 06:51:27;;;;;;;9.18;4.60;;;11.90;99.90;;;;;;5015754;28;20037;-90
2022/12/21 06:53:53;;;;;;;6.75;4.07;;;11.80;99.90;;;;;;5015892;28;20032;-91
2022/12/21 06:56:23;;;;;;;10.55;4.60;;;11.80;99.90;;;;;;5015822;28;20037;-91
2022/12/21 06:58:50;;;;;;;7.43;4.38;;;11.80;99.90;;;;;;5033654;28;20516;-90
2022/12/21 07:01:21;;;;;;;10.32;4.55;;;11.90;99.90;;;;;;5033744;28;20040;-90
2022/12/21 07:03:47;;;;;;;10.07;4.30;;;11.90;99.90;;;;;;5015407;28;20112;-90
2022/12/21 07:06:15;;;;;;;9.60;4.82;;;11.80;99.90;;;;;;5032857;28;20021;-90
2022/12/21 07:08:41;;;;;;;8.07;5.05;;;11.80;99.90;;;;;;5033368;28;20025;-90
2022/12/21 07:11:10;;;;;;;8.95;4.28;;;11.80;99.90;;;;;;5033148;28;20113;-91
2022/12/21 07:13:37;;;;;;;12.25;5.03;;;11.90;99.90;;;;;;5033371;28;20030;-90
2022/12/21 07:16:03;;;;;;;7.68;4.47;;;11.90;99.90;;;;;;5015369;28;20022;-90
2022/12/21 07:18:29;;;;;;;8.65;4.43;;;11.90;99.90;;;;;;5032690;28;20041;-90
2022/12/21 07:20:57;;;;;;;8.23;4.35;;;12.00;99.90;;;;;;5033125;28;20112;-90
2022/12/21 07:23:22;;;;;;;10.20;5.05;;;12.00;99.90;;;;;;5033405;28;20409;-90
2022/12/21 07:25:48;;;;;;;10.80;5.22;;;11.90;99.90;;;;;;5033015;28;20021;-89
2022/12/21 07:28:13;;;;;;;7.53;5.18;;;12.00;99.90;;;;;;5032832;28;20163;-89
2022/12/21 07:30:39;;;;;;;10.45;5.35;;;12.00;99.90;;;;;;5033038;28;20440;-89
2022/12/21 07:33:05;;;;;;;11.50;5.50;;;12.00;99.90;;;;;;5032367;28;20025;-90
2022/12/21 07:35:31;;;;;;;9.80;5.38;;;12.00;99.90;;;;;;5032625;28;20072;-89
2022/12/21 07:37:57;;;;;;;14.05;5.80;;;11.90;99.90;;;;;;5033042;28;20045;-89
2022/12/21 07:40:22;;;;;;;11.00;6.22;;;11.80;99.90;;;;;;5032658;28;20029;-89
2022/12/21 07:42:48;;;;;;;13.77;6.60;;;11.80;99.90;;;;;;5032833;28;20040;-90
2022/12/21 07:45:14;;;;;;;14.43;6.13;;;11.80;99.90;;;;;;5032559;28;20029;-90
2022/12/21 07:47:40;;;;;;;12.55;6.22;;;11.80;99.90;;;;;;5032368;28;20041;-89
2022/12/21 07:50:07;;;;;;;11.60;7.20;;;11.80;99.90;;;;;;5032579;28;20382;-90
2022/12/21 07:52:33;;;;;;;14.32;7.00;;;11.80;99.90;;;;;;5032420;28;20017;-90
2022/12/21 07:54:59;;;;;;;13.05;6.85;;;11.90;99.90;;;;;;5032592;28;20092;-90
2022/12/21 07:57:25;;;;;;;14.05;6.65;;;11.90;99.90;;;;;;5032480;28;20083;-89
2022/12/21 07:59:50;;;;;;;10.27;6.32;;;11.80;99.90;;;;;;5033038;28;20029;-89
2022/12/21 08:02:16;;;;;;;11.02;6.38;;;11.80;99.90;;;;;;5014639;28;20044;-89
2022/12/21 08:04:42;;;;;;;10.00;6.07;;;11.70;99.90;;;;;;5033673;28;20029;-89
2022/12/21 08:07:07;;;;;;;14.05;6.35;;;11.60;99.90;;;;;;5032912;28;20424;-90
2022/12/21 08:09:35;;;;;;;10.88;6.38;;;11.60;99.90;;;;;;5032385;28;20079;-89
2022/12/21 08:12:01;;;;;;;11.30;6.03;;;11.60;99.90;;;;;;5014941;28;20044;-90
2022/12/21 08:14:27;;;;;;;12.27;5.50;;;11.60;99.90;;;;;;5032865;28;20017;-90
2022/12/21 08:16:53;;;;;;;11.20;5.47;;;11.80;99.90;;;;;;5032797;28;20390;-90
2022/12/21 08:19:19;;;;;;;10.82;5.50;;;11.80;99.90;;;;;;5035429;28;20393;-90
2022/12/21 08:21:45;;;;;;;9.52;5.35;;;11.90;99.90;;;;;;5036510;28;20033;-89
2022/12/21 08:24:11;;;;;;;10.73;4.72;;;11.90;99.90;;;;;;5036332;28;20025;-90
2022/12/21 08:26:37;;;;;;;9.05;4.70;;;11.90;99.90;;;;;;5036426;28;20100;-89
2022/12/21 08:29:03;;;;;;;15.07;5.60;;;11.90;99.90;;;;;;5036431;28;20397;-90
2022/12/21 08:31:29;;;;;;;15.20;6.97;;;11.80;99.90;;;;;;5036101;28;20032;-90
2022/12/21 08:33:54;;;;;;;12.50;6.85;;;11.70;99.90;;;;;;5036100;28;20033;-90
2022/12/21 08:36:23;;;;;;;11.63;6.68;;;11.70;99.90;;;;;;5036071;28;20029;-89
2022/12/21 08:38:49;;;;;;;8.90;5.47;;;11.70;99.90;;;;;;5036285;28;20028;-90
2022/12/21 08:41:16;;;;;;;9.25;4.63;;;11.70;99.90;;;;;;5036159;28;20112;-89
2022/12/21 08:43:41;;;;;;;8.63;4.97;;;11.70;99.90;;;;;;5035882;28;20033;-90
2022/12/21 08:46:10;;;;;;;9.00;4.70;;;11.80;99.90;;;;;;5036126;28;20021;-90
2022/12/21 08:48:36;;;;;;;8.10;4.78;;;11.90;99.90;;;;;;5036110;28;20405;-90
2022/12/21 08:51:03;;;;;;;6.68;4.07;;;12.10;99.90;;;;;;5018356;28;20049;-90
2022/12/21 08:53:28;;;;;;;9.20;4.40;;;12.10;99.90;;;;;;5035760;28;20083;-90
2022/12/21 08:55:54;;;;;;;9.50;5.10;;;12.20;99.90;;;;;;5035674;28;20026;-90
2022/12/21 08:58:22;;;;;;;8.00;4.60;;;12.50;99.90;;;;;;5017808;28;20033;-89
2022/12/21 09:00:50;;;;;;;7.30;4.20;;;12.80;99.90;;;;;;5036193;28;20025;-90
2022/12/21 09:03:15;;;;;;;9.25;4.28;;;13.00;99.90;;;;;;5035418;28;20045;-90
2022/12/21 09:05:41;;;;;;;8.15;5.00;;;13.10;99.90;;;;;;5017755;28;20022;-89
2022/12/21 09:08:06;;;;;;;9.68;4.63;;;13.00;99.90;;;;;;5035643;28;20780;-90
2022/12/21 09:10:33;;;;;;;9.90;4.72;;;13.00;99.90;;;;;;5035721;28;20103;-90
2022/12/21 09:12:59;;;;;;;8.57;4.22;;;13.00;99.90;;;;;;5035572;28;20071;-90
2022/12/21 09:15:25;;;;;;;8.48;4.47;;;13.00;99.90;;;;;;5035569;28;20022;-90
2022/12/21 09:17:50;;;;;;;6.30;4.30;;;13.00;99.90;;;;;;5035038;28;20053;-90
2022/12/21 09:20:16;;;;;;;6.40;4.15;;;13.00;99.90;;;;;;5035627;28;20053;-91
2022/12/21 09:22:42;;;;;;;7.32;4.35;;;13.10;99.90;;;;;;5018113;28;20057;-90
2022/12/21 09:25:08;;;;;;;6.10;4.07;;;13.10;99.90;;;;;;5035154;28;20374;-90
2022/12/21 09:27:34;;;;;;;6.28;3.65;;;13.10;99.90;;;;;;5035007;28;20031;-90
2022/12/21 09:29:59;;;;;;;8.88;3.63;;;13.30;99.90;;;;;;5035404;28;20097;-90
2022/12/21 09:32:26;;;;;;;8.77;4.03;;;13.30;99.90;;;;;;5034595;28;20034;-90
2022/12/21 09:34:52;;;;;;;9.93;3.85;;;13.40;99.90;;;;;;5035704;28;20083;-90
2022/12/21 09:37:18;;;;;;;8.70;3.55;;;13.60;99.90;;;;;;5034946;28;20444;-90
2022/12/21 09:39:44;;;;;;;8.32;3.95;;;13.60;99.90;;;;;;5035007;28;20022;-90
2022/12/21 09:42:43;;;;;;;5.95;4.13;;;13.70;99.90;;;;;;5035020;28;20036;-90
2022/12/21 09:45:14;;;;;;;5.75;3.80;;;13.80;99.90;;;;;;5034853;28;20382;-90
2022/12/21 09:47:53;;;;;;;10.10;4.85;;;14.00;99.90;;;;;;5034971;28;20513;-90
2022/12/21 09:50:23;;;;;;;8.20;3.42;;;14.20;99.90;;;;;;5034959;28;20052;-90
2022/12/21 09:52:58;;;;;;;8.93;3.88;;;14.40;99.90;;;;;;5034587;28;20018;-90
2022/12/21 09:55:27;;;;;;;7.70;3.42;;;14.60;99.90;;;;;;5017071;28;20029;-91
2022/12/21 09:57:54;;;;;;;8.00;3.05;;;14.80;99.90;;;;;;5034411;28;20099;-91
2022/12/21 10:00:24;;;;;;;6.32;3.05;;;14.80;99.90;;;;;;5034896;28;20030;-90
2022/12/21 10:03:04;;;;;;;5.60;2.97;;;15.20;99.90;;;;;;5016591;28;20029;-92
2022/12/21 10:05:58;;;;;;;4.47;2.55;;;15.60;99.90;;;;;;5034918;28;20029;-90
2022/12/21 10:08:38;;;;;;;4.35;2.17;;;19.50;99.90;;;;;;5034715;28;20023;-91
2022/12/21 10:11:12;;;;;;;6.82;2.80;;;24.30;99.90;;;;;;5034637;28;20083;-92
2022/12/21 10:14:01;;;;;;;6.13;2.80;;;24.00;99.90;;;;;;5034936;28;20030;-91
2022/12/21 10:16:45;;;;;;;8.18;2.67;;;22.00;99.90;;;;;;4918807;29;20044;-92
2022/12/21 10:19:40;;;;;;;6.25;2.58;;;20.80;99.90;;;;;;4935559;29;20032;-91
2022/12/21 10:22:44;;;;;;;5.78;2.63;;;20.10;99.90;;;;;;4935241;29;20035;-91
2022/12/21 10:25:23;;;;;;;4.22;2.47;;;21.20;99.90;;;;;;4922798;29;20040;-91
2022/12/21 10:27:56;;;;;;;5.68;2.80;;;22.40;99.90;;;;;;4934852;29;20032;-91
2022/12/21 10:30:22;;;;;;;4.85;2.40;;;26.90;99.90;;;;;;4934628;29;20051;-91
2022/12/21 10:32:49;;;;;;;3.47;2.35;;;28.30;99.90;;;;;;4934890;29;20032;-91
2022/12/21 10:35:31;;;;;;;3.17;2.20;;;24.70;99.90;;;;;;4934557;29;20610;-91
2022/12/21 10:38:00;;;;;;;4.15;2.05;;;28.40;99.90;;;;;;4934713;29;20051;-91
2022/12/21 10:40:28;;;;;;;6.00;2.30;;;31.20;99.90;;;;;;4934244;29;20040;-91
2022/12/21 10:42:55;;;;;;;4.35;2.40;;;30.30;99.90;;;;;;4934959;29;20032;-91
2022/12/21 10:45:23;;;;;;;4.47;2.63;;;29.40;99.90;;;;;;4934579;29;20031;-91
2022/12/21 10:47:49;;;;;;;7.20;2.50;;;31.60;99.90;;;;;;4934733;29;20044;-91
2022/12/21 10:50:20;;;;;;;5.15;2.63;;;31.70;99.90;;;;;;4935176;29;20128;-91
2022/12/21 10:52:51;;;;;;;4.90;2.40;;;31.00;99.90;;;;;;4954475;28;20030;-92
2022/12/21 10:55:17;;;;;;;4.07;2.30;;;31.40;99.90;;;;;;5033306;28;20030;-91
2022/12/21 10:58:03;;;;;;;2.92;2.10;;;30.90;99.90;;;;;;5033538;28;20044;-91
2022/12/21 11:00:30;;;;;;;4.45;2.45;;;29.60;99.90;;;;;;5033544;28;20124;-91
2022/12/21 11:02:58;;;;;;;2.45;2.20;;;27.30;99.90;;;;;;5033936;28;20156;-91
2022/12/21 11:05:41;;;;;;;4.32;2.20;;;28.30;99.90;;;;;;5033956;28;20029;-90
2022/12/21 11:08:14;;;;;;;4.47;2.25;;;29.40;99.90;;;;;;5015690;28;20041;-91
2022/12/21 11:10:42;;;;;;;3.75;2.47;;;30.40;99.90;;;;;;5033219;28;20043;-91
2022/12/21 11:13:10;;;;;;;3.08;1.92;;;33.90;99.90;;;;;;5033745;28;20053;-91
2022/12/21 11:15:35;;;;;;;3.65;1.83;;;30.90;99.90;;;;;;5033332;28;20119;-92
2022/12/21 11:18:01;;;;;;;10.38;9.32;;;29.20;99.90;;;;;;5033257;28;20533;-92
2022/12/21 11:20:27;;;;;;;5.43;2.80;;;26.90;99.90;;;;;;5033667;28;20025;-91
2022/12/21 11:22:56;;;;;;;2.53;1.65;;;27.50;99.90;;;;;;5033217;28;20100;-91
2022/12/21 11:25:25;;;;;;;2.90;1.67;;;32.00;99.90;;;;;;5015165;28;20083;-91
2022/12/21 11:27:57;;;;;;;2.00;1.60;;;29.60;99.90;;;;;;5033376;28;20136;-91
2022/12/21 11:30:26;;;;;;;4.03;1.90;;;30.00;99.90;;;;;;5033045;28;20037;-91
2022/12/21 11:32:55;;;;;;;4.78;1.52;;;32.90;99.90;;;;;;5033120;28;20508;-92
2022/12/21 11:35:24;;;;;;;3.72;1.52;;;31.70;99.90;;;;;;5033378;28;20033;-91
2022/12/21 11:37:56;;;;;;;3.22;1.60;;;28.40;99.90;;;;;;5032728;28;20059;-91
2022/12/21 11:40:26;;;;;;;2.10;1.30;;;25.50;99.90;;;;;;5033046;28;20029;-91
2022/12/21 11:43:00;;;;;;;3.60;1.83;;;24.70;99.90;;;;;;5032812;28;20029;-91
2022/12/21 11:45:45;;;;;;;2.45;1.80;;;24.60;99.90;;;;;;5033433;28;20075;-91
2022/12/21 11:48:33;;;;;;;4.47;2.17;;;25.70;99.90;;;;;;5033090;28;20018;-90
2022/12/21 11:51:01;;;;;;;2.50;1.80;;;25.10;99.90;;;;;;5032970;28;20393;-91
2022/12/21 11:53:55;;;;;;;2.08;1.73;;;30.80;99.90;;;;;;5014511;28;20167;-91
2022/12/21 11:56:47;;;;;;;4.43;1.33;;;33.80;99.90;;;;;;5032606;28;20026;-91
2022/12/21 11:59:51;;;;;;;3.00;1.80;;;33.80;99.90;;;;;;5033005;28;20044;-91
2022/12/21 12:02:26;;;;;;;3.60;1.50;;;32.20;99.90;;;;;;5032922;28;20029;-91
2022/12/21 12:05:07;;;;;;;3.28;1.58;;;33.60;99.90;;;;;;5032878;28;20024;-91
2022/12/21 12:08:07;;;;;;;3.70;2.00;;;32.30;99.90;;;;;;5015064;28;20026;-91
2022/12/21 12:11:22;;;;;;;3.78;1.60;;;28.80;99.90;;;;;;5032585;28;20022;-91
2022/12/21 12:14:13;;;;;;;4.10;1.70;;;29.20;99.90;;;;;;4933327;29;20020;-91
2022/12/21 12:16:53;;;;;;;2.95;1.60;;;30.70;99.90;;;;;;4932812;29;20099;-91
2022/12/21 12:19:43;;;;;;;2.88;1.70;;;28.50;99.90;;;;;;4933431;29;20040;-91
2022/12/21 12:22:23;;;;;;;2.70;1.85;;;28.40;99.90;;;;;;4933665;29;20032;-90
2022/12/21 12:24:51;;;;;;;2.95;1.80;;;28.40;99.90;;;;;;4916869;29;20050;-91
2022/12/21 12:27:24;;;;;;;4.97;1.60;;;26.70;99.90;;;;;;4933356;29;20031;-90
2022/12/21 12:29:59;;;;;;;2.15;1.60;;;23.90;99.90;;;;;;4932828;29;20024;-92
2022/12/21 12:32:46;;;;;;;3.90;2.10;;;23.80;99.90;;;;;;4933330;29;20031;-90
2022/12/21 12:35:23;;;;;;;2.47;1.77;;;25.00;99.90;;;;;;4933056;29;20036;-90
2022/12/21 12:37:54;;;;;;;3.75;1.95;;;25.50;99.90;;;;;;4932367;28;20130;-90
2022/12/21 12:40:40;;;;;;;4.22;1.58;;;26.50;99.90;;;;;;4932792;29;20059;-91
2022/12/21 12:43:09;;;;;;;2.80;1.48;;;26.50;99.90;;;;;;4932948;29;20078;-91
2022/12/21 12:46:08;;;;;;;2.03;1.50;;;27.50;99.90;;;;;;5024422;28;20052;-90
2022/12/21 12:48:42;;;;;;;2.00;1.58;;;26.20;99.90;;;;;;5031930;28;20030;-91
2022/12/21 12:51:13;;;;;;;2.83;1.98;;;25.10;99.90;;;;;;5031581;28;20057;-91
2022/12/21 12:54:03;;;;;;;2.88;1.90;;;25.50;99.90;;;;;;5032061;28;20033;-91
2022/12/21 12:56:47;;;;;;;4.38;1.92;;;22.90;99.90;;;;;;5014606;28;20040;-90
2022/12/21 12:59:31;;;;;;;2.70;1.60;;;22.50;99.90;;;;;;5031874;28;20029;-90
2022/12/21 13:02:06;;;;;;;3.15;1.58;;;22.00;99.90;;;;;;5031784;28;20050;-90
2022/12/21 13:04:56;;;;;;;2.95;1.30;;;21.20;99.90;;;;;;5033537;28;20060;-90
2022/12/21 13:07:59;;;;;;;1.60;1.50;;;20.50;99.90;;;;;;5035801;28;20071;-90
2022/12/21 13:10:49;;;;;;;4.03;1.90;;;20.50;99.90;;;;;;5020197;28;20041;-90
2022/12/21 13:13:23;;;;;;;2.15;1.73;;;20.70;99.90;;;;;;5035642;28;20029;-90
2022/12/21 13:16:13;;;;;;;3.03;1.58;;;20.00;99.90;;;;;;5017625;28;20033;-90
2022/12/21 13:18:46;;;;;;;2.58;1.70;;;21.00;99.90;;;;;;5035361;28;20033;-90
2022/12/21 13:21:15;;;;;;;2.67;1.50;;;20.00;99.90;;;;;;5034993;28;20049;-90